createdAt,value
2018-04-23T00:00:09.828Z,84.20
2018-04-23T00:02:38.498Z,85.90
2018-04-23T00:05:07.075Z,86.30
2018-04-23T00:07:34.920Z,86.20
2018-04-23T00:10:03.372Z,86.30
2018-04-23T00:12:31.203Z,86.00
2018-04-23T00:15:00.851Z,87.70
2018-04-23T00:17:28.680Z,87.60
2018-04-23T00:19:57.333Z,88.30
2018-04-23T00:22:25.897Z,88.40
2018-04-23T00:24:54.536Z,87.40
2018-04-23T00:27:23.157Z,87.10
2018-04-23T00:29:51.150Z,87.10
2018-04-23T00:32:19.034Z,87.30
2018-04-23T00:34:46.849Z,87.20
2018-04-23T00:37:14.824Z,86.70
2018-04-23T00:39:42.798Z,86.20
2018-04-23T00:42:10.709Z,86.90
2018-04-23T00:44:38.667Z,86.10
2018-04-23T00:47:06.535Z,85.20
2018-04-23T00:49:34.417Z,85.00
2018-04-23T00:52:03.168Z,85.10
2018-04-23T00:54:31.351Z,85.00
2018-04-23T00:56:59.272Z,84.00
2018-04-23T00:59:27.217Z,84.30
2018-04-23T01:01:57.147Z,85.60
2018-04-23T01:04:25.983Z,85.40
2018-04-23T01:06:53.865Z,86.40
2018-04-23T01:09:23.403Z,86.50
2018-04-23T01:11:51.950Z,85.80
2018-04-23T01:14:20.604Z,86.60
2018-04-23T01:16:48.587Z,86.60
2018-04-23T01:19:16.483Z,85.20
2018-04-23T01:21:44.347Z,86.80
2018-04-23T01:24:12.282Z,87.10
2018-04-23T01:26:40.300Z,87.40
2018-04-23T01:29:09.387Z,89.10
2018-04-23T01:31:37.249Z,89.10
2018-04-23T01:34:05.096Z,90.20
2018-04-23T01:36:33.456Z,90.30
2018-04-23T01:39:02.124Z,90.10
2018-04-23T01:41:29.967Z,90.10
2018-04-23T01:43:58.589Z,90.20
2018-04-23T01:46:26.699Z,90.20
2018-04-23T01:48:54.544Z,91.10
2018-04-23T01:51:22.376Z,91.50
2018-04-23T01:53:50.287Z,91.60
2018-04-23T01:56:18.202Z,91.70
2018-04-23T01:58:46.889Z,91.90
2018-04-23T02:01:15.583Z,92.50
2018-04-23T02:03:43.425Z,92.40
2018-04-23T02:06:11.881Z,93.00
2018-04-23T02:08:39.741Z,93.90
2018-04-23T02:11:07.673Z,94.20
2018-04-23T02:13:35.443Z,94.60
2018-04-23T02:16:03.362Z,95.00
2018-04-23T02:18:31.467Z,95.20
2018-04-23T02:21:00.292Z,95.50
2018-04-23T02:23:28.159Z,95.50
2018-04-23T02:25:56.062Z,95.30
2018-04-23T02:28:23.995Z,95.30
2018-04-23T02:30:51.900Z,95.30
2018-04-23T02:33:19.759Z,95.40
2018-04-23T02:35:47.575Z,95.60
2018-04-23T02:38:15.506Z,96.00
2018-04-23T02:40:43.330Z,95.60
2018-04-23T02:43:11.226Z,95.60
2018-04-23T02:45:39.185Z,96.10
2018-04-23T02:48:06.974Z,96.20
2018-04-23T02:50:34.892Z,96.10
2018-04-23T02:53:02.789Z,96.10
2018-04-23T02:55:30.652Z,96.20
2018-04-23T02:57:58.529Z,96.30
2018-04-23T03:00:26.419Z,96.50
2018-04-23T03:02:55.085Z,96.80
2018-04-23T03:05:23.009Z,96.80
2018-04-23T03:07:50.891Z,96.70
2018-04-23T03:10:18.847Z,97.10
2018-04-23T03:12:46.744Z,96.80
2018-04-23T03:15:14.752Z,96.60
2018-04-23T03:17:43.403Z,97.50
2018-04-23T03:20:11.301Z,97.40
2018-04-23T03:22:39.987Z,97.90
2018-04-23T03:25:08.593Z,97.50
2018-04-23T03:27:36.392Z,97.50
2018-04-23T03:30:04.364Z,97.90
2018-04-23T03:32:32.713Z,98.10
2018-04-23T03:35:00.662Z,97.50
2018-04-23T03:37:29.375Z,98.00
2018-04-23T03:39:57.296Z,97.90
2018-04-23T03:42:25.244Z,97.70
2018-04-23T03:44:53.135Z,98.40
2018-04-23T03:47:21.023Z,97.50
2018-04-23T03:49:49.687Z,99.90
2018-04-23T03:52:17.597Z,99.90
2018-04-23T03:54:45.459Z,99.90
2018-04-23T03:57:13.480Z,99.90
2018-04-23T03:59:41.378Z,97.40
2018-04-23T04:02:09.994Z,97.70
2018-04-23T04:04:37.834Z,97.70
2018-04-23T04:07:06.505Z,95.30
2018-04-23T04:09:35.088Z,95.30
2018-04-23T04:12:15.450Z,95.80
2018-04-23T04:20:49.865Z,96.70
2018-04-23T04:23:17.796Z,96.90
2018-04-23T04:25:46.451Z,97.30
2018-04-23T04:28:14.249Z,97.30
2018-04-23T04:30:42.916Z,97.70
2018-04-23T04:33:11.555Z,97.70
2018-04-23T04:35:39.440Z,97.70
2018-04-23T04:38:07.443Z,97.60
2018-04-23T04:40:36.072Z,98.00
2018-04-23T04:43:03.901Z,98.00
2018-04-23T04:45:32.533Z,98.50
2018-04-23T04:48:00.377Z,98.50
2018-04-23T04:50:28.296Z,98.30
2018-04-23T04:52:56.219Z,97.70
2018-04-23T04:55:24.067Z,97.80
2018-04-23T04:57:52.001Z,98.70
2018-04-23T05:00:19.937Z,98.80
2018-04-23T05:02:47.800Z,99.10
2018-04-23T05:05:15.689Z,99.00
2018-04-23T05:07:43.629Z,99.20
2018-04-23T05:10:11.509Z,99.20
2018-04-23T05:12:39.312Z,99.20
2018-04-23T05:15:07.271Z,99.30
2018-04-23T05:17:35.053Z,99.90
2018-04-23T05:20:03.760Z,97.40
2018-04-23T05:22:32.424Z,97.00
2018-04-23T05:25:01.045Z,97.10
2018-04-23T05:27:28.884Z,96.90
2018-04-23T05:29:57.583Z,98.00
2018-04-23T05:32:25.440Z,98.00
2018-04-23T05:34:54.019Z,98.50
2018-04-23T05:37:21.909Z,98.40
2018-04-23T05:39:49.801Z,98.80
2018-04-23T05:42:17.632Z,98.50
2018-04-23T05:44:45.479Z,98.70
2018-04-23T05:47:14.028Z,98.80
2018-04-23T05:49:41.821Z,98.80
2018-04-23T05:52:09.724Z,98.70
2018-04-23T05:54:38.415Z,98.90
2018-04-23T05:57:06.163Z,98.90
2018-04-23T05:59:34.896Z,99.90
2018-04-23T06:02:02.776Z,99.90
2018-04-23T06:04:30.634Z,98.90
2018-04-23T06:06:58.500Z,98.30
2018-04-23T06:09:26.340Z,97.90
2018-04-23T06:11:54.082Z,98.40
2018-04-23T06:14:22.040Z,98.30
2018-04-23T06:16:50.610Z,97.00
2018-04-23T06:19:18.472Z,97.00
2018-04-23T06:21:46.384Z,95.80
2018-04-23T06:24:14.250Z,93.80
2018-04-23T06:26:42.201Z,93.40
2018-04-23T06:29:10.056Z,93.20
2018-04-23T06:31:38.015Z,93.00
2018-04-23T06:34:06.734Z,92.40
2018-04-23T06:36:34.648Z,92.40
2018-04-23T06:39:02.496Z,92.90
2018-04-23T06:41:30.293Z,92.50
2018-04-23T06:43:58.139Z,93.30
2018-04-23T06:46:26.119Z,92.80
2018-04-23T06:48:53.887Z,90.80
2018-04-23T06:51:21.821Z,90.70
2018-04-23T06:53:49.709Z,90.80
2018-04-23T06:56:17.573Z,90.90
2018-04-23T06:58:45.502Z,90.10
2018-04-23T07:01:13.361Z,90.20
2018-04-23T07:03:41.275Z,92.00
2018-04-23T07:06:09.157Z,89.20
2018-04-23T07:08:36.973Z,86.50
2018-04-23T07:11:04.873Z,86.30
2018-04-23T07:13:32.721Z,84.70
2018-04-23T07:16:00.548Z,80.30
2018-04-23T07:18:29.307Z,76.30
2018-04-23T07:20:57.233Z,76.30
2018-04-23T07:23:25.129Z,75.60
2018-04-23T07:25:53.023Z,76.00
2018-04-23T07:28:20.910Z,73.90
2018-04-23T07:30:49.505Z,70.50
2018-04-23T07:33:18.152Z,68.90
2018-04-23T07:35:46.033Z,68.80
2018-04-23T07:38:13.872Z,65.00
2018-04-23T07:40:41.779Z,64.00
2018-04-23T07:43:09.711Z,62.20
2018-04-23T07:45:37.581Z,61.50
2018-04-23T07:48:05.398Z,59.20
2018-04-23T07:50:33.355Z,58.80
2018-04-23T07:53:01.957Z,60.20
2018-04-23T07:55:29.780Z,60.20
2018-04-23T07:57:57.710Z,59.00
2018-04-23T08:00:25.543Z,59.70
2018-04-23T08:02:54.192Z,57.60
2018-04-23T08:05:22.086Z,57.70
2018-04-23T08:07:50.619Z,55.60
2018-04-23T08:10:18.500Z,55.60
2018-04-23T08:12:46.416Z,55.80
2018-04-23T08:15:14.234Z,56.80
2018-04-23T08:17:42.079Z,54.00
2018-04-23T08:20:09.972Z,53.40
2018-04-23T08:22:37.761Z,54.10
2018-04-23T08:25:05.592Z,53.70
2018-04-23T08:27:33.523Z,51.20
2018-04-23T08:30:01.346Z,49.30
2018-04-23T08:32:29.220Z,51.10
2018-04-23T08:34:57.041Z,49.50
2018-04-23T08:37:25.122Z,52.20
2018-04-23T08:39:53.037Z,48.50
2018-04-23T08:42:21.691Z,49.10
2018-04-23T08:44:49.533Z,49.00
2018-04-23T08:47:17.323Z,49.10
2018-04-23T08:49:45.171Z,47.70
2018-04-23T08:52:13.010Z,48.10
2018-04-23T08:54:40.943Z,48.00
2018-04-23T08:57:08.767Z,46.90
2018-04-23T08:59:36.628Z,47.50
2018-04-23T09:02:04.457Z,47.60
2018-04-23T09:04:33.159Z,47.20
2018-04-23T09:07:01.784Z,44.70
2018-04-23T09:09:29.671Z,44.60
2018-04-23T09:11:57.591Z,44.80
2018-04-23T09:14:25.508Z,43.20
2018-04-23T09:16:53.353Z,41.40
2018-04-23T09:19:21.273Z,42.30
2018-04-23T09:21:49.958Z,44.00
2018-04-23T09:24:28.431Z,44.00
2018-04-23T09:26:56.261Z,42.90
2018-04-23T09:29:24.109Z,41.40
2018-04-23T09:31:53.728Z,39.30
2018-04-23T09:34:21.632Z,39.30
2018-04-23T09:36:49.513Z,39.20
2018-04-23T09:39:17.503Z,38.60
2018-04-23T09:41:46.085Z,38.80
2018-04-23T09:44:14.777Z,39.10
2018-04-23T09:46:43.541Z,39.10
2018-04-23T09:49:11.492Z,38.70
2018-04-23T09:51:39.307Z,36.60
2018-04-23T09:54:07.980Z,36.80
2018-04-23T09:56:35.849Z,36.70
2018-04-23T09:59:03.736Z,36.80
2018-04-23T10:01:32.301Z,36.10
2018-04-23T10:04:06.136Z,36.10
2018-04-23T10:06:34.100Z,34.20
2018-04-23T10:09:01.941Z,34.40
2018-04-23T10:11:29.828Z,34.10
2018-04-23T10:13:58.488Z,32.20
2018-04-23T10:16:26.325Z,32.10
2018-04-23T10:18:54.211Z,32.30
2018-04-23T10:21:22.182Z,34.20
2018-04-23T10:23:50.131Z,35.40
2018-04-23T10:26:18.738Z,35.70
2018-04-23T10:28:46.617Z,34.20
2018-04-23T10:31:14.472Z,33.60
2018-04-23T10:33:42.430Z,33.50
2018-04-23T10:36:10.271Z,31.50
2018-04-23T10:38:38.093Z,31.50
2018-04-23T10:41:06.717Z,31.60
2018-04-23T10:43:34.667Z,31.50
2018-04-23T10:46:02.506Z,31.20
2018-04-23T10:48:30.374Z,29.60
2018-04-23T10:50:58.362Z,31.20
2018-04-23T10:53:27.022Z,30.10
2018-04-23T10:55:54.904Z,30.00
2018-04-23T10:58:23.608Z,29.80
2018-04-23T11:00:51.489Z,29.80
2018-04-23T11:03:19.429Z,29.20
2018-04-23T11:05:47.391Z,29.20
2018-04-23T11:08:15.993Z,29.40
2018-04-23T11:10:43.884Z,29.30
2018-04-23T11:13:11.841Z,29.50
2018-04-23T11:15:39.809Z,29.40
2018-04-23T11:18:07.827Z,30.30
2018-04-23T11:20:35.723Z,30.10
2018-04-23T11:23:04.428Z,33.50
2018-04-23T11:25:32.333Z,33.40
2018-04-23T11:28:00.197Z,33.00
2018-04-23T11:30:28.093Z,33.70
2018-04-23T11:32:55.968Z,34.40
2018-04-23T11:35:23.932Z,34.60
2018-04-23T11:37:51.815Z,36.10
2018-04-23T11:40:20.460Z,36.60
2018-04-23T11:42:48.315Z,36.50
2018-04-23T11:45:16.181Z,35.00
2018-04-23T11:47:44.077Z,33.60
2018-04-23T11:50:11.963Z,33.10
2018-04-23T11:52:39.831Z,33.20
2018-04-23T11:55:08.525Z,35.30
2018-04-23T11:57:37.330Z,34.80
2018-04-23T12:00:05.238Z,34.70
2018-04-23T12:02:37.153Z,34.90
2018-04-23T12:05:05.933Z,36.40
2018-04-23T12:07:34.631Z,36.80
2018-04-23T12:10:02.428Z,36.70
2018-04-23T12:12:30.232Z,37.80
2018-04-23T12:14:58.110Z,37.80
2018-04-23T12:17:26.788Z,37.60
2018-04-23T12:19:54.640Z,37.60
2018-04-23T12:22:22.497Z,38.40
2018-04-23T12:24:50.397Z,39.00
2018-04-23T12:27:19.116Z,40.30
2018-04-23T12:29:47.062Z,39.70
2018-04-23T12:32:14.856Z,40.60
2018-04-23T12:34:42.695Z,41.00
2018-04-23T12:37:11.447Z,42.30
2018-04-23T12:39:39.391Z,42.30
2018-04-23T12:42:07.253Z,43.50
2018-04-23T12:44:35.124Z,45.60
2018-04-23T12:47:02.890Z,49.30
2018-04-23T12:49:33.697Z,50.60
2018-04-23T12:52:01.775Z,51.30
2018-04-23T12:54:29.748Z,49.00
2018-04-23T12:56:57.813Z,47.10
2018-04-23T12:59:25.750Z,44.70
2018-04-23T13:01:53.598Z,39.90
2018-04-23T13:04:21.598Z,39.70
2018-04-23T13:06:50.230Z,40.00
2018-04-23T13:09:18.050Z,39.90
2018-04-23T13:11:46.709Z,38.20
2018-04-23T13:14:14.633Z,38.20
2018-04-23T13:16:42.426Z,36.90
2018-04-23T13:19:10.383Z,36.80
2018-04-23T13:21:38.265Z,38.30
2018-04-23T13:24:06.195Z,38.00
2018-04-23T13:26:34.080Z,35.20
2018-04-23T13:29:02.029Z,34.70
2018-04-23T13:31:30.095Z,31.30
2018-04-23T13:33:58.006Z,33.00
2018-04-23T13:36:25.834Z,33.60
2018-04-23T13:38:53.609Z,33.40
2018-04-23T13:41:21.474Z,35.10
2018-04-23T13:43:49.278Z,36.40
2018-04-23T13:46:17.236Z,37.90
2018-04-23T13:48:46.397Z,38.70
2018-04-23T13:51:14.241Z,38.10
2018-04-23T13:53:42.837Z,38.40
2018-04-23T13:56:11.569Z,39.30
2018-04-23T13:58:39.530Z,39.30
2018-04-23T14:01:07.402Z,39.10
2018-04-23T14:03:35.401Z,37.80
2018-04-23T14:06:03.314Z,37.10
2018-04-23T14:08:31.212Z,37.40
2018-04-23T14:10:59.114Z,36.50
2018-04-23T14:13:27.078Z,41.40
2018-04-23T14:15:54.853Z,39.50
2018-04-23T14:18:23.626Z,40.70
2018-04-23T14:20:52.407Z,40.70
2018-04-23T14:23:20.321Z,41.80
2018-04-23T14:25:48.320Z,44.00
2018-04-23T14:28:16.101Z,45.10
2018-04-23T14:30:43.928Z,46.80
2018-04-23T14:33:12.473Z,48.00
2018-04-23T14:35:40.433Z,48.80
2018-04-23T14:38:08.326Z,49.80
2018-04-23T14:40:36.984Z,49.60
2018-04-23T14:43:04.905Z,49.60
2018-04-23T14:45:32.706Z,49.10
2018-04-23T14:48:00.587Z,49.70
2018-04-23T14:50:28.465Z,50.60
2018-04-23T14:52:56.267Z,52.00
2018-04-23T14:55:24.118Z,52.80
2018-04-23T14:57:51.949Z,51.00
2018-04-23T15:00:19.733Z,49.10
2018-04-23T15:02:47.558Z,52.70
2018-04-23T15:05:15.474Z,49.50
2018-04-23T15:07:43.404Z,50.90
2018-04-23T15:10:11.336Z,51.40
2018-04-23T15:12:39.201Z,52.90
2018-04-23T15:15:07.095Z,54.00
2018-04-23T15:17:35.088Z,55.00
2018-04-23T15:20:02.992Z,54.30
2018-04-23T15:22:31.577Z,59.30
2018-04-23T15:25:00.212Z,59.10
2018-04-23T15:27:28.080Z,59.00
2018-04-23T15:29:55.893Z,63.00
2018-04-23T15:32:24.500Z,66.80
2018-04-23T15:34:52.309Z,66.80
2018-04-23T15:37:20.356Z,64.90
2018-04-23T15:39:48.214Z,68.50
2018-04-23T15:42:16.109Z,67.80
2018-04-23T15:44:44.030Z,66.40
2018-04-23T15:47:11.974Z,68.40
2018-04-23T15:49:40.539Z,73.80
2018-04-23T15:52:08.390Z,73.70
2018-04-23T15:54:37.369Z,68.10
2018-04-23T15:57:05.660Z,71.50
2018-04-23T15:59:36.976Z,70.90
2018-04-23T16:02:04.903Z,70.80
2018-04-23T16:04:32.770Z,70.80
2018-04-23T16:07:01.617Z,71.60
2018-04-23T16:09:29.497Z,71.60
2018-04-23T16:11:57.396Z,75.00
2018-04-23T16:14:25.318Z,75.90
2018-04-23T16:16:53.135Z,77.10
2018-04-23T16:19:21.755Z,76.90
2018-04-23T16:21:49.604Z,76.90
2018-04-23T16:24:17.496Z,77.70
2018-04-23T16:26:45.373Z,72.00
2018-04-23T16:29:13.157Z,69.50
2018-04-23T16:31:41.031Z,80.10
2018-04-23T16:34:08.874Z,83.90
2018-04-23T16:36:36.730Z,80.50
2018-04-23T16:39:04.728Z,79.80
2018-04-23T16:41:32.484Z,77.10
2018-04-23T16:44:00.248Z,77.10
2018-04-23T16:46:28.134Z,76.60
2018-04-23T16:48:55.926Z,77.50
2018-04-23T16:51:24.546Z,78.30
2018-04-23T16:53:52.431Z,78.30
2018-04-23T16:56:20.257Z,78.80
2018-04-23T16:58:48.344Z,78.90
2018-04-23T17:01:16.213Z,78.30
2018-04-23T17:03:43.975Z,78.30
2018-04-23T17:06:11.844Z,78.20
2018-04-23T17:08:39.896Z,79.50
2018-04-23T17:11:07.695Z,78.10
2018-04-23T17:13:35.596Z,77.70
2018-04-23T17:16:03.492Z,76.30
2018-04-23T17:18:32.099Z,76.40
2018-04-23T17:21:00.111Z,76.30
2018-04-23T17:23:28.059Z,78.50
2018-04-23T17:25:55.897Z,78.60
2018-04-23T17:28:24.015Z,78.80
2018-04-23T17:33:28.610Z,85.80
2018-04-23T17:35:56.512Z,82.50
2018-04-23T17:38:34.739Z,83.90
2018-04-23T17:41:03.869Z,83.90
2018-04-23T17:43:32.523Z,85.60
2018-04-23T17:46:01.274Z,83.70
2018-04-23T17:48:29.369Z,86.80
2018-04-23T17:50:57.500Z,90.30
2018-04-23T17:53:25.703Z,91.50
2018-04-23T17:55:56.371Z,92.00
2018-04-23T17:58:28.450Z,92.50
2018-04-23T18:00:57.454Z,93.00
2018-04-23T18:03:28.646Z,93.00
2018-04-23T18:05:56.945Z,94.70
2018-04-23T18:08:30.611Z,92.40
2018-04-23T18:10:59.299Z,92.40
2018-04-23T18:13:28.716Z,93.20
2018-04-23T18:15:56.600Z,93.20
2018-04-23T18:18:24.521Z,93.10
2018-04-23T18:20:52.295Z,91.30
2018-04-23T18:23:20.169Z,91.40
2018-04-23T18:25:48.024Z,91.60
2018-04-23T18:28:15.878Z,91.10
2018-04-23T18:30:44.536Z,92.00
2018-04-23T18:33:12.380Z,91.90
2018-04-23T18:35:40.249Z,92.20
2018-04-23T18:38:08.147Z,91.50
2018-04-23T18:40:36.754Z,91.80
2018-04-23T18:43:04.618Z,91.80
2018-04-23T18:45:32.528Z,91.10
2018-04-23T18:48:00.568Z,90.70
2018-04-23T18:50:28.551Z,91.70
2018-04-23T18:52:56.445Z,91.80
2018-04-23T18:55:24.298Z,92.90
2018-04-23T18:57:52.134Z,93.60
2018-04-23T19:00:20.215Z,93.90
2018-04-23T19:02:48.083Z,93.90
2018-04-23T19:05:16.017Z,93.60
2018-04-23T19:07:44.593Z,94.00
2018-04-23T19:10:13.989Z,93.30
2018-04-23T19:12:41.794Z,93.30
2018-04-23T19:15:09.903Z,93.10
2018-04-23T19:17:37.804Z,92.90
2018-04-23T19:20:06.404Z,94.20
2018-04-23T19:22:35.294Z,94.30
2018-04-23T19:25:04.005Z,93.40
2018-04-23T19:27:32.196Z,93.40
2018-04-23T19:30:00.165Z,92.60
2018-04-23T19:32:27.942Z,93.50
2018-04-23T19:34:55.878Z,94.00
2018-04-23T19:37:24.701Z,92.70
2018-04-23T19:39:52.608Z,92.70
2018-04-23T19:42:21.401Z,92.50
2018-04-23T19:44:50.380Z,94.00
2018-04-23T19:47:19.174Z,94.20
2018-04-23T19:49:47.836Z,94.70
2018-04-23T19:52:15.756Z,94.70
2018-04-23T19:54:43.845Z,95.30
2018-04-23T19:57:11.893Z,95.20
2018-04-23T19:59:39.978Z,95.50
2018-04-23T20:02:07.925Z,95.20
2018-04-23T20:04:36.633Z,95.30
2018-04-23T20:07:04.751Z,95.30
2018-04-23T20:09:32.728Z,95.90
2018-04-23T20:12:01.994Z,95.90
2018-04-23T20:14:29.967Z,96.50
2018-04-23T20:16:57.889Z,96.80
2018-04-23T20:19:26.497Z,96.70
2018-04-23T20:21:54.481Z,96.70
2018-04-23T20:24:22.510Z,96.80
2018-04-23T20:26:50.417Z,97.00
2018-04-23T20:29:18.384Z,97.00
2018-04-23T20:31:46.243Z,97.40
2018-04-23T20:34:14.105Z,97.90
2018-04-23T20:36:42.027Z,97.70
2018-04-23T20:39:10.701Z,97.60
2018-04-23T20:41:38.475Z,97.60
2018-04-23T20:44:06.386Z,98.40
2018-04-23T20:46:34.330Z,98.40
2018-04-23T20:49:02.996Z,99.90
2018-04-23T20:51:30.840Z,99.90
2018-04-23T20:53:58.768Z,99.90
2018-04-23T20:56:26.596Z,99.90
2018-04-23T20:58:54.495Z,99.80
2018-04-23T21:01:23.296Z,99.30
2018-04-23T21:03:51.205Z,99.20
2018-04-23T21:06:19.243Z,98.10
2018-04-23T21:08:47.123Z,95.90
2018-04-23T21:11:15.166Z,95.00
2018-04-23T21:13:43.912Z,95.30
2018-04-23T21:16:11.771Z,95.20
2018-04-23T21:18:39.703Z,95.80
2018-04-23T21:21:07.651Z,95.90
2018-04-23T21:23:36.282Z,95.40
2018-04-23T21:26:04.944Z,95.80
2018-04-23T21:31:07.732Z,95.90
2018-04-23T21:33:35.668Z,95.80
2018-04-23T21:36:03.545Z,95.30
2018-04-23T21:38:32.194Z,94.30
2018-04-23T21:41:00.190Z,94.30
2018-04-23T21:43:28.051Z,94.50
2018-04-23T21:45:55.978Z,95.00
2018-04-23T21:48:23.952Z,96.10
2018-04-23T21:50:51.778Z,96.60
2018-04-23T21:53:19.652Z,97.20
2018-04-23T21:55:48.336Z,99.10
2018-04-23T21:58:16.956Z,99.70
2018-04-23T22:00:44.896Z,99.70
2018-04-23T22:03:12.753Z,99.90
2018-04-23T22:05:41.420Z,99.90
2018-04-23T22:08:09.237Z,99.90
2018-04-23T22:10:37.189Z,99.20
2018-04-23T22:13:05.025Z,99.90
2018-04-23T22:15:32.816Z,99.90
2018-04-23T22:18:00.726Z,99.90
2018-04-23T22:20:28.550Z,98.10
2018-04-23T22:22:57.295Z,97.40
2018-04-23T22:25:25.173Z,97.00
2018-04-23T22:27:52.953Z,96.80
2018-04-23T22:30:21.628Z,97.90
2018-04-23T22:32:49.557Z,97.90
2018-04-23T22:35:17.402Z,98.90
2018-04-23T22:37:45.187Z,99.50
2018-04-23T22:40:12.922Z,99.80
2018-04-23T22:42:40.617Z,99.70
2018-04-23T22:45:08.382Z,99.90
2018-04-23T22:47:36.291Z,99.90
2018-04-23T22:50:04.829Z,99.90
2018-04-23T22:52:32.748Z,99.80
2018-04-23T22:55:01.288Z,99.40
2018-04-23T22:57:29.132Z,99.40
2018-04-23T22:59:56.911Z,99.40
2018-04-23T23:02:24.802Z,99.20
2018-04-23T23:04:52.678Z,98.90
2018-04-23T23:07:20.561Z,99.00
2018-04-23T23:09:49.209Z,98.60
2018-04-23T23:12:16.964Z,98.50
2018-04-23T23:14:44.744Z,98.70
2018-04-23T23:17:12.569Z,98.80
2018-04-23T23:19:40.507Z,99.20
2018-04-23T23:22:09.248Z,99.50
2018-04-23T23:24:38.857Z,99.50
2018-04-23T23:27:06.724Z,99.20
2018-04-23T23:29:34.561Z,98.80
2018-04-23T23:32:02.452Z,98.40
2018-04-23T23:34:31.150Z,98.40
2018-04-23T23:36:59.005Z,97.90
2018-04-23T23:39:27.769Z,98.00
2018-04-23T23:41:55.741Z,97.40
2018-04-23T23:44:23.589Z,97.30
2018-04-23T23:46:52.255Z,97.70
2018-04-23T23:49:20.845Z,97.40
2018-04-23T23:51:49.449Z,97.30
2018-04-23T23:54:18.356Z,97.30
2018-04-23T23:56:46.095Z,97.40
2018-04-23T23:59:19.438Z,99.30
